Time;durP1;ratioP1;P1;durP2;ratioP2;P2;SDS_P1;SDS_P2;PMS_P1;PMS_P2;Temp;Humidity;BMP_temperature;BMP_pressure;BME280_temperature;BME280_humidity;BME280_pressure;Samples;Min_cycle;Max_cycle;Signal;HPM_P1;HPM_P2
2022/09/25 00:01:11;;;;;;;13.70;9.97;;;;;;;17.28;66.09;101014.19;4852591;28;96938;-51
2022/09/25 00:03:36;;;;;;;21.37;10.70;;;;;;;17.27;65.93;101009.91;4873265;28;97558;-52
2022/09/25 00:06:14;;;;;;;15.17;10.70;;;;;;;17.27;66.24;101013.44;4869516;28;97121;-51
2022/09/25 00:08:39;;;;;;;17.27;10.80;;;;;;;17.25;65.94;101010.44;4867471;28;97541;-53
2022/09/25 00:11:08;;;;;;;17.63;10.63;;;;;;;17.27;66.19;101018.25;4871375;28;98143;-51
2022/09/25 00:13:34;;;;;;;15.07;11.20;;;;;;;17.25;66.01;101013.94;4849932;28;97071;-51
2022/09/25 00:15:59;;;;;;;20.33;12.33;;;;;;;17.25;66.01;101011.16;4871372;28;97243;-51
2022/09/25 00:21:13;;;;;;;17.40;11.27;;;;;;;17.22;66.05;101005.94;4862235;28;97228;-51
2022/09/25 00:23:39;;;;;;;18.43;11.97;;;;;;;17.22;66.03;101005.94;4856201;28;97628;-51
2022/09/25 00:26:06;;;;;;;21.30;12.73;;;;;;;17.23;66.10;101010.22;4870121;28;97183;-51
2022/09/25 00:28:32;;;;;;;13.47;9.90;;;;;;;17.23;66.12;101013.00;4872077;28;97073;-51
2022/09/25 00:30:58;;;;;;;20.70;12.37;;;;;;;17.22;66.10;101006.69;4858686;28;97459;-51
2022/09/25 00:33:24;;;;;;;17.27;11.87;;;;;;;17.23;66.03;101005.38;4870088;28;97610;-52
2022/09/25 00:35:50;;;;;;;21.40;11.37;;;;;;;17.23;66.20;101001.88;4872926;28;101628;-51
2022/09/25 00:38:15;;;;;;;20.80;12.87;;;;;;;17.22;66.07;101009.47;4858743;28;97042;-51
2022/09/25 00:40:40;;;;;;;29.80;11.30;;;;;;;17.21;66.04;101007.22;4867807;28;97099;-51
2022/09/25 00:43:36;;;;;;;21.77;12.50;;;;;;;17.19;66.36;101004.19;4866141;28;98725;-51
2022/09/25 00:46:04;;;;;;;27.33;11.63;;;;;;;17.20;66.12;101012.03;4870374;28;101634;-51
2022/09/25 00:48:29;;;;;;;20.83;12.60;;;;;;;17.20;66.17;101005.72;4854009;28;96607;-51
2022/09/25 00:50:57;;;;;;;20.47;12.30;;;;;;;17.21;66.15;101007.22;4873095;28;96929;-51
2022/09/25 00:53:27;;;;;;;19.97;12.37;;;;;;;17.18;66.05;101009.03;4869511;28;97134;-51
2022/09/25 00:55:54;;;;;;;22.40;12.57;;;;;;;17.20;66.14;101009.25;4869680;28;102926;-51
2022/09/25 00:58:24;;;;;;;19.73;12.60;;;;;;;17.19;66.18;101007.72;4870332;28;97158;-51
2022/09/25 01:00:51;;;;;;;23.43;12.47;;;;;;;17.19;66.24;101016.06;4848712;28;96887;-51
2022/09/25 01:03:17;;;;;;;22.10;12.40;;;;;;;17.18;66.11;101006.25;4861991;28;96910;-51
2022/09/25 01:05:44;;;;;;;21.10;12.03;;;;;;;17.19;66.21;101006.97;4877754;28;97332;-51
2022/09/25 01:08:13;;;;;;;21.60;11.97;;;;;;;17.20;66.13;101022.38;4857912;28;97188;-51
2022/09/25 01:10:39;;;;;;;25.10;13.23;;;;;;;17.19;66.20;101004.94;4872588;28;97144;-51
2022/09/25 01:13:05;;;;;;;20.50;13.03;;;;;;;17.19;66.16;101004.19;4855610;28;98665;-51
2022/09/25 01:15:37;;;;;;;18.10;12.60;;;;;;;17.20;66.31;101003.69;4868925;28;96775;-51
2022/09/25 01:18:18;;;;;;;23.83;12.93;;;;;;;17.20;66.28;101002.94;4873918;28;97529;-51
2022/09/25 01:21:07;;;;;;;21.20;11.97;;;;;;;17.20;66.25;101000.16;4868391;28;97727;-51
2022/09/25 01:24:02;;;;;;;21.60;12.63;;;;;;;17.18;66.31;101000.69;4857451;28;96900;-51
2022/09/25 01:27:16;;;;;;;17.70;11.93;;;;;;;17.16;66.39;101000.47;4846806;28;100349;-51
2022/09/25 01:29:52;;;;;;;17.20;12.23;;;;;;;17.18;66.15;101005.47;4853704;28;98102;-51
2022/09/25 01:32:40;;;;;;;18.90;11.83;;;;;;;17.17;66.12;101001.94;4863095;28;97116;-51
2022/09/25 01:35:41;;;;;;;18.60;12.43;;;;;;;17.15;66.51;101000.97;4871442;28;102313;-51
2022/09/25 01:38:18;;;;;;;21.17;13.17;;;;;;;17.16;66.27;101002.47;4872365;28;100165;-52
2022/09/25 01:40:48;;;;;;;18.23;12.40;;;;;;;17.16;66.07;100999.72;4858187;28;97061;-52
2022/09/25 01:43:17;;;;;;;21.77;12.10;;;;;;;17.17;66.24;101006.75;4867991;28;97062;-51
2022/09/25 01:45:48;;;;;;;22.13;13.40;;;;;;;17.17;66.16;100999.16;4867612;28;100402;-51
2022/09/25 01:48:17;;;;;;;17.40;13.03;;;;;;;17.18;66.13;101006.25;4855397;28;99123;-51
2022/09/25 01:50:49;;;;;;;16.70;12.10;;;;;;;17.20;66.05;101002.94;4865793;28;97095;-51
2022/09/25 01:53:20;;;;;;;17.67;12.43;;;;;;;17.20;66.22;101008.47;4856774;28;97467;-51
2022/09/25 01:55:51;;;;;;;15.90;11.30;;;;;;;17.19;66.21;101002.16;4871097;28;97134;-51
2022/09/25 01:58:23;;;;;;;15.20;11.67;;;;;;;17.19;66.15;101004.19;4853608;28;97606;-51
2022/09/25 02:00:56;;;;;;;16.83;11.93;;;;;;;17.19;66.17;100995.84;4869534;28;96870;-51
2022/09/25 02:03:27;;;;;;;18.60;12.17;;;;;;;17.20;66.21;101000.16;4858004;28;96891;-51
2022/09/25 02:05:59;;;;;;;21.40;12.57;;;;;;;17.17;66.00;100998.41;4882137;28;97530;-51
2022/09/25 02:08:38;;;;;;;17.50;11.17;;;;;;;17.16;66.29;101008.06;4868277;28;98453;-51
2022/09/25 02:11:04;;;;;;;14.97;10.53;;;;;;;17.13;66.26;101006.31;4872562;28;97324;-51
2022/09/25 02:13:40;;;;;;;13.60;10.47;;;;;;;17.12;66.33;101007.59;4874742;28;96837;-51
2022/09/25 02:16:16;;;;;;;13.67;9.97;;;;;;;17.10;66.20;101007.38;4872631;28;102527;-51
2022/09/25 02:21:41;;;;;;;12.87;9.30;;;;;;;17.06;66.16;101010.47;4864150;28;103384;-51
2022/09/25 02:24:21;;;;;;;12.77;9.47;;;;;;;17.02;66.21;101004.47;4855716;28;97114;-51
2022/09/25 02:26:48;;;;;;;11.57;8.60;;;;;;;17.01;66.34;101007.78;4866594;28;101393;-51
2022/09/25 02:29:14;;;;;;;9.13;7.47;;;;;;;17.01;66.35;101002.97;4859482;28;98097;-51
2022/09/25 02:32:03;;;;;;;15.03;7.90;;;;;;;17.01;66.30;100999.44;4863072;28;97014;-51
2022/09/25 02:34:30;;;;;;;9.87;8.10;;;;;;;17.02;66.34;101003.69;4854173;28;98842;-51
2022/09/25 02:36:55;;;;;;;14.50;9.33;;;;;;;16.99;66.20;101008.28;4866778;28;97602;-51
2022/09/25 02:39:25;;;;;;;10.13;7.73;;;;;;;16.96;66.22;101003.81;4854876;28;117206;-51
2022/09/25 02:42:26;;;;;;;10.80;7.40;;;;;;;16.97;66.42;101001.78;4870905;28;97318;-52
2022/09/25 02:45:11;;;;;;;12.40;7.20;;;;;;;16.94;66.50;101008.38;4883187;28;97785;-51
2022/09/25 02:47:53;;;;;;;9.60;7.53;;;;;;;16.92;66.34;101003.34;4866839;28;101859;-51
2022/09/25 02:50:34;;;;;;;8.60;7.17;;;;;;;16.88;66.37;101004.94;4870243;28;97351;-56
2022/09/25 02:53:07;;;;;;;10.40;7.87;;;;;;;16.87;66.29;101003.44;4859789;28;96946;-51
2022/09/25 02:55:35;;;;;;;9.20;8.10;;;;;;;16.88;66.36;101004.94;4870840;28;97008;-51
2022/09/25 02:58:14;;;;;;;9.43;7.60;;;;;;;16.85;66.34;101003.97;4854471;28;96902;-51
2022/09/25 03:00:43;;;;;;;10.73;8.50;;;;;;;16.84;66.36;101012.84;4870539;28;97224;-52
2022/09/25 03:03:13;;;;;;;11.50;8.00;;;;;;;16.83;66.38;101011.31;4859306;28;96967;-51
2022/09/25 03:05:40;;;;;;;9.60;8.30;;;;;;;16.83;66.36;101009.31;4873811;28;98020;-51
2022/09/25 03:10:50;;;;;;;11.30;9.13;;;;;;;16.81;66.32;101005.53;4870175;28;101268;-51
2022/09/25 03:13:22;;;;;;;10.43;8.00;;;;;;;16.83;66.27;101003.75;4858391;28;96743;-51
2022/09/25 03:15:57;;;;;;;12.30;8.90;;;;;;;16.82;66.43;101007.78;4868019;28;97034;-52
2022/09/25 03:18:24;;;;;;;10.80;8.50;;;;;;;16.81;66.19;101013.88;4862427;28;97738;-52
2022/09/25 03:20:50;;;;;;;13.43;9.43;;;;;;;16.80;66.27;101006.81;4874552;28;97141;-51
2022/09/25 03:23:16;;;;;;;14.67;9.03;;;;;;;16.76;66.27;101012.69;4868754;28;96901;-51
2022/09/25 03:25:41;;;;;;;11.50;8.87;;;;;;;16.75;66.25;101004.88;4866059;28;96924;-51
2022/09/25 03:28:11;;;;;;;9.03;7.97;;;;;;;16.73;66.20;100999.09;4867384;28;98655;-52
2022/09/25 03:30:39;;;;;;;8.53;7.00;;;;;;;16.70;66.23;101014.03;4863976;28;97284;-51
2022/09/25 03:33:05;;;;;;;7.90;6.77;;;;;;;16.69;66.14;101002.16;4853592;28;96987;-51
2022/09/25 03:35:31;;;;;;;10.53;6.70;;;;;;;16.68;66.16;101006.22;4871368;28;96975;-51
2022/09/25 03:37:57;;;;;;;11.30;7.27;;;;;;;16.66;66.25;101005.25;4851826;28;97304;-51
2022/09/25 03:40:22;;;;;;;7.60;6.23;;;;;;;16.63;66.15;101006.28;4880490;28;96892;-51
2022/09/25 03:42:47;;;;;;;10.43;6.37;;;;;;;16.61;66.22;101003.28;4866410;28;96799;-51
2022/09/25 03:45:13;;;;;;;6.27;5.67;;;;;;;16.56;66.31;101010.41;4855015;28;97686;-51
2022/09/25 03:47:38;;;;;;;5.70;5.10;;;;;;;16.55;66.21;101008.19;4875057;28;97868;-54
2022/09/25 03:50:04;;;;;;;6.00;4.97;;;;;;;16.53;66.34;101008.72;4867920;28;110273;-51
2022/09/25 03:52:29;;;;;;;5.50;5.00;;;;;;;16.50;66.37;101004.19;4853646;28;97178;-51
2022/09/25 03:54:54;;;;;;;5.00;4.50;;;;;;;16.48;66.35;101015.81;4871266;28;97042;-51
2022/09/25 03:57:20;;;;;;;6.40;4.47;;;;;;;16.44;66.37;101001.47;4864674;28;113932;-51
2022/09/25 03:59:45;;;;;;;4.20;3.90;;;;;;;16.40;66.38;101001.00;4854953;28;97188;-51
2022/09/25 04:02:11;;;;;;;4.40;3.70;;;;;;;16.38;66.53;101003.53;4866870;28;116109;-51
2022/09/25 04:04:36;;;;;;;5.30;4.23;;;;;;;16.40;66.44;100998.22;4877345;28;97283;-51
2022/09/25 04:07:02;;;;;;;4.80;4.30;;;;;;;16.39;66.47;101005.06;4855042;28;108234;-51
2022/09/25 04:09:28;;;;;;;4.20;3.80;;;;;;;16.40;66.37;101006.53;4864087;28;97031;-51
2022/09/25 04:11:54;;;;;;;6.27;3.83;;;;;;;16.39;66.41;100999.50;4857662;28;96980;-52
2022/09/25 04:14:20;;;;;;;4.20;3.90;;;;;;;16.38;66.42;100998.00;4866339;28;98597;-51
2022/09/25 04:16:45;;;;;;;8.90;3.87;;;;;;;16.39;66.41;101005.06;4864032;28;97224;-51
2022/09/25 04:19:11;;;;;;;5.80;3.80;;;;;;;16.37;66.32;101002.06;4860685;28;97464;-51
2022/09/25 04:21:36;;;;;;;6.83;4.37;;;;;;;16.36;66.35;101003.31;4867793;28;97334;-51
2022/09/25 04:26:46;;;;;;;4.57;4.17;;;;;;;16.32;66.38;101000.09;4875313;28;101776;-51
2022/09/25 04:29:13;;;;;;;4.60;4.20;;;;;;;16.31;66.39;100998.59;4870583;28;97201;-51
2022/09/25 04:31:38;;;;;;;6.13;4.50;;;;;;;16.28;66.56;100994.09;4856746;28;97399;-51
2022/09/25 04:34:04;;;;;;;5.40;4.40;;;;;;;16.26;66.34;100993.88;4874955;28;97213;-51
2022/09/25 04:36:29;;;;;;;4.93;4.43;;;;;;;16.22;66.36;100985.09;4866390;28;114563;-53
2022/09/25 04:38:54;;;;;;;4.87;4.47;;;;;;;16.19;66.52;100988.91;4855419;28;100449;-51
2022/09/25 04:41:20;;;;;;;5.30;4.80;;;;;;;16.16;66.59;100989.19;4871493;28;97155;-51
2022/09/25 04:43:45;;;;;;;6.93;4.67;;;;;;;16.17;66.68;100997.00;4854060;28;97041;-51
2022/09/25 04:46:12;;;;;;;5.50;5.00;;;;;;;16.19;66.64;100994.44;4872240;28;97578;-52
2022/09/25 04:48:37;;;;;;;8.10;5.53;;;;;;;16.21;66.56;100991.91;4871310;28;97511;-51
2022/09/25 04:51:04;;;;;;;5.63;5.17;;;;;;;16.20;66.47;100995.97;4855431;28;97006;-51
2022/09/25 04:53:30;;;;;;;4.90;4.50;;;;;;;16.17;66.51;100997.00;4872774;28;97248;-51
2022/09/25 04:56:01;;;;;;;6.40;4.60;;;;;;;16.18;66.80;101001.28;4864411;28;97721;-51
2022/09/25 04:58:26;;;;;;;5.33;4.87;;;;;;;16.20;66.54;100995.22;4860119;28;97527;-51
2022/09/25 05:00:51;;;;;;;5.60;4.80;;;;;;;16.18;66.61;101001.28;4869542;28;97067;-52
2022/09/25 05:03:17;;;;;;;11.43;5.40;;;;;;;16.18;66.52;100998.50;4855316;28;96926;-52
2022/09/25 05:05:42;;;;;;;5.27;4.80;;;;;;;16.19;66.53;101000.00;4870381;28;98514;-51
2022/09/25 05:08:08;;;;;;;6.37;4.73;;;;;;;16.19;66.51;100994.44;4876150;28;96733;-51
2022/09/25 05:10:33;;;;;;;5.27;4.80;;;;;;;16.20;66.45;101001.50;4858689;28;96705;-51
2022/09/25 05:13:03;;;;;;;7.30;6.30;;;;;;;16.19;66.46;100993.69;4867501;28;97104;-51
2022/09/25 05:15:31;;;;;;;6.47;5.33;;;;;;;16.18;66.40;101004.06;4871816;28;98603;-51
2022/09/25 05:18:20;;;;;;;6.43;5.53;;;;;;;16.19;66.47;101002.03;4853331;28;97861;-51
2022/09/25 05:20:45;;;;;;;5.83;5.30;;;;;;;16.16;66.46;101003.81;4852520;28;97117;-51
2022/09/25 05:23:11;;;;;;;9.83;5.30;;;;;;;16.16;66.41;101003.81;4866172;28;97553;-51
2022/09/25 05:25:36;;;;;;;6.57;5.37;;;;;;;16.15;66.50;101009.88;4870798;28;112909;-51
2022/09/25 05:28:02;;;;;;;9.00;5.27;;;;;;;16.16;66.47;101005.84;4856045;28;105843;-51
2022/09/25 05:30:31;;;;;;;7.50;5.90;;;;;;;16.17;66.63;101004.56;4872326;28;96735;-52
2022/09/25 05:32:57;;;;;;;5.90;4.93;;;;;;;16.17;66.39;101005.31;4865996;28;97147;-51
2022/09/25 05:35:26;;;;;;;6.13;5.53;;;;;;;16.16;66.41;101000.31;4843072;28;97712;-51
2022/09/25 05:37:51;;;;;;;6.77;5.63;;;;;;;16.16;66.47;101005.84;4869263;28;96568;-51
2022/09/25 05:40:19;;;;;;;7.37;6.47;;;;;;;16.13;66.51;101004.13;4855849;28;97233;-52
2022/09/25 05:42:46;;;;;;;8.33;5.90;;;;;;;16.15;66.31;101002.31;4872299;28;97774;-51
2022/09/25 05:45:13;;;;;;;7.33;6.10;;;;;;;16.13;66.46;101002.09;4870936;28;103184;-51
2022/09/25 05:47:39;;;;;;;6.77;6.00;;;;;;;16.14;66.47;101000.06;4853967;28;97520;-51
2022/09/25 05:50:05;;;;;;;8.80;6.73;;;;;;;16.16;66.38;101005.84;4865815;28;98105;-51
2022/09/25 05:52:31;;;;;;;9.30;5.20;;;;;;;16.17;66.45;101001.78;4872567;28;97178;-51
2022/09/25 05:54:56;;;;;;;8.13;7.17;;;;;;;16.17;66.36;100991.44;4856802;28;113656;-51
2022/09/25 05:57:22;;;;;;;9.87;5.73;;;;;;;16.16;66.31;100998.25;4878077;28;112050;-52
2022/09/25 05:59:48;;;;;;;11.70;6.30;;;;;;;16.16;66.30;100989.94;4856154;28;97111;-52
2022/09/25 06:02:14;;;;;;;8.47;6.20;;;;;;;16.18;66.28;100989.44;4870911;28;96922;-52
2022/09/25 06:04:39;;;;;;;12.73;6.23;;;;;;;16.17;66.32;100987.91;4873544;28;97416;-51
2022/09/25 06:07:05;;;;;;;14.30;6.80;;;;;;;16.17;66.44;100994.22;4856403;28;97129;-51
2022/09/25 06:09:30;;;;;;;8.30;5.80;;;;;;;16.16;66.49;100987.16;4873793;28;96903;-51
2022/09/25 06:11:55;;;;;;;7.40;5.90;;;;;;;16.19;66.46;100985.34;4872245;28;97955;-51
2022/09/25 06:14:20;;;;;;;7.00;6.30;;;;;;;16.21;66.44;100989.13;4851138;28;96975;-51
2022/09/25 06:16:49;;;;;;;12.20;6.30;;;;;;;16.22;66.42;100990.63;4873902;28;116036;-51
2022/09/25 06:19:14;;;;;;;6.93;5.77;;;;;;;16.25;66.51;100986.78;4871341;28;97046;-52
2022/09/25 06:21:40;;;;;;;10.43;6.67;;;;;;;16.26;66.44;100988.31;4860508;28;97499;-51
2022/09/25 06:24:05;;;;;;;6.50;5.77;;;;;;;16.30;66.37;100996.34;4870202;28;112364;-51
2022/09/25 06:26:32;;;;;;;6.27;5.67;;;;;;;16.31;66.40;100990.28;4863293;28;97293;-52
2022/09/25 06:28:59;;;;;;;8.53;5.70;;;;;;;16.32;66.46;100994.53;4866241;28;97958;-51
2022/09/25 06:31:25;;;;;;;5.60;4.60;;;;;;;16.35;66.43;100995.53;4878007;28;97000;-51
2022/09/25 06:33:50;;;;;;;5.10;4.70;;;;;;;16.35;66.46;100995.53;4856463;28;98487;-52
2022/09/25 06:36:16;;;;;;;11.50;6.13;;;;;;;16.37;66.49;100992.97;4865495;28;97172;-51
2022/09/25 06:38:41;;;;;;;8.47;5.77;;;;;;;16.38;66.42;100992.44;4864521;28;97172;-51
2022/09/25 06:41:06;;;;;;;4.33;3.83;;;;;;;16.39;66.42;100998.75;4860720;28;97280;-51
2022/09/25 06:43:32;;;;;;;6.43;4.73;;;;;;;16.34;66.35;100999.56;4866076;28;103859;-52
2022/09/25 06:46:01;;;;;;;4.70;4.30;;;;;;;16.33;66.48;101003.63;4873181;28;96770;-51
2022/09/25 06:48:27;;;;;;;7.77;4.27;;;;;;;16.31;66.41;100997.84;4869033;28;97577;-50
2022/09/25 06:50:54;;;;;;;5.30;4.70;;;;;;;16.28;66.42;101001.66;4873693;28;97561;-53
2022/09/25 06:53:22;;;;;;;8.80;4.30;;;;;;;16.27;66.62;101006.47;4860107;28;96997;-52
2022/09/25 06:55:48;;;;;;;5.37;4.20;;;;;;;16.29;66.56;101001.13;4872384;28;97455;-53
2022/09/25 06:58:19;;;;;;;4.30;3.67;;;;;;;16.30;66.57;100997.09;4869116;28;96952;-53
2022/09/25 07:00:49;;;;;;;4.40;3.57;;;;;;;16.30;66.46;100999.88;4854524;28;98976;-51
2022/09/25 07:06:00;;;;;;;5.87;2.90;;;;;;;16.32;66.59;101004.88;4866989;28;100321;-52
2022/09/25 07:08:26;;;;;;;8.03;4.20;;;;;;;16.33;66.46;101003.63;4873289;28;96979;-52
2022/09/25 07:10:54;;;;;;;3.13;2.93;;;;;;;16.34;66.42;101003.09;4856339;28;97270;-50
2022/09/25 07:13:24;;;;;;;6.80;3.60;;;;;;;16.35;66.49;100993.50;4864855;28;97317;-52
2022/09/25 07:15:54;;;;;;;6.40;3.47;;;;;;;16.34;66.42;101005.88;4869116;28;98329;-55
2022/09/25 07:18:22;;;;;;;4.97;3.67;;;;;;;16.35;66.46;101009.41;4870989;28;96884;-52
2022/09/25 07:20:48;;;;;;;3.50;3.20;;;;;;;16.35;66.51;101010.16;4871471;28;97077;-52
2022/09/25 07:23:14;;;;;;;7.33;3.60;;;;;;;16.37;66.53;101007.63;4853595;28;99384;-53
2022/09/25 07:25:40;;;;;;;5.27;3.13;;;;;;;16.38;66.63;101008.38;4865783;28;98390;-50
2022/09/25 07:28:06;;;;;;;9.50;3.03;;;;;;;16.41;66.44;101010.84;4868102;28;110109;-52
2022/09/25 07:30:32;;;;;;;3.23;2.93;;;;;;;16.41;66.39;101012.84;4861617;28;97328;-53
2022/09/25 07:32:57;;;;;;;3.27;2.80;;;;;;;16.44;66.53;101003.50;4868460;28;97126;-52
2022/09/25 07:35:23;;;;;;;4.93;3.30;;;;;;;16.45;66.72;101004.97;4863507;28;111261;-52
2022/09/25 07:37:48;;;;;;;3.87;3.10;;;;;;;16.45;66.47;101008.50;4858763;28;97574;-53
2022/09/25 07:40:13;;;;;;;4.63;3.60;;;;;;;16.47;66.71;101013.53;4873976;28;96883;-52
2022/09/25 07:42:40;;;;;;;5.50;3.50;;;;;;;16.49;66.67;101011.75;4862141;28;97077;-52
2022/09/25 07:45:07;;;;;;;6.03;3.63;;;;;;;16.53;66.51;101010.72;4871767;28;96875;-52
2022/09/25 07:47:32;;;;;;;8.43;3.90;;;;;;;16.51;66.65;101018.84;4877228;28;97798;-52
2022/09/25 07:49:58;;;;;;;4.30;2.97;;;;;;;16.52;66.57;101017.53;4855176;28;97066;-52
2022/09/25 07:52:23;;;;;;;3.90;3.43;;;;;;;16.50;66.60;101012.53;4874344;28;97071;-52
2022/09/25 07:54:48;;;;;;;6.77;3.83;;;;;;;16.51;66.57;101021.63;4885206;28;97499;-52
2022/09/25 07:57:15;;;;;;;7.90;3.80;;;;;;;16.51;66.53;101022.38;4854480;28;97223;-52
2022/09/25 07:59:40;;;;;;;7.47;4.13;;;;;;;16.49;66.49;101030.44;4863824;28;97407;-52
2022/09/25 08:02:05;;;;;;;10.87;4.50;;;;;;;16.49;66.46;101036.75;4872266;28;102033;-54
2022/09/25 08:04:31;;;;;;;3.90;3.60;;;;;;;16.48;66.66;101038.03;4858677;28;97378;-52
2022/09/25 08:06:59;;;;;;;6.47;3.63;;;;;;;16.49;66.70;101024.88;4872080;28;97078;-52
2022/09/25 08:09:24;;;;;;;6.07;3.73;;;;;;;16.49;66.61;101027.66;4851494;28;108517;-52
2022/09/25 08:11:50;;;;;;;6.10;3.87;;;;;;;16.49;66.63;101025.63;4869443;28;97452;-52
2022/09/25 08:14:17;;;;;;;8.77;4.10;;;;;;;16.51;66.62;101029.94;4866470;28;97808;-52
2022/09/25 08:16:42;;;;;;;4.70;4.27;;;;;;;16.51;66.60;101030.72;4852647;28;97111;-51
2022/09/25 08:19:09;;;;;;;5.93;3.83;;;;;;;16.54;66.68;101028.88;4872334;28;97605;-53
2022/09/25 08:21:35;;;;;;;5.37;4.20;;;;;;;16.53;66.66;101030.19;4869185;28;97747;-51
2022/09/25 08:24:00;;;;;;;5.23;3.60;;;;;;;16.54;66.63;101032.41;4855933;28;98581;-52
2022/09/25 08:26:27;;;;;;;5.70;4.20;;;;;;;16.55;66.63;101030.41;4871577;28;97669;-52
2022/09/25 08:28:53;;;;;;;5.80;4.30;;;;;;;16.53;66.53;101035.72;4849205;28;97306;-52
2022/09/25 08:31:19;;;;;;;7.53;3.80;;;;;;;16.55;66.80;101030.41;4866490;28;99294;-52
2022/09/25 08:33:46;;;;;;;6.47;3.73;;;;;;;16.54;66.57;101026.84;4872123;28;97296;-52
2022/09/25 08:36:11;;;;;;;5.83;3.43;;;;;;;16.53;66.62;101030.94;4860449;28;99341;-52
2022/09/25 08:38:37;;;;;;;3.83;3.43;;;;;;;16.54;66.78;101032.41;4865371;28;96973;-52
2022/09/25 08:41:02;;;;;;;4.50;3.80;;;;;;;16.55;66.69;101033.16;4870113;28;106065;-53
2022/09/25 08:43:30;;;;;;;3.40;3.10;;;;;;;16.55;66.72;101028.38;4858765;28;97027;-53
2022/09/25 08:49:08;;;;;;;7.00;3.47;;;;;;;16.56;66.76;101035.41;4861185;28;98004;-51
2022/09/25 08:51:48;;;;;;;4.43;2.90;;;;;;;16.55;66.77;101039.50;4854436;28;100600;-53
2022/09/25 08:54:25;;;;;;;3.57;2.60;;;;;;;16.53;66.85;101042.03;4874102;28;97276;-51
2022/09/25 08:56:55;;;;;;;3.70;2.70;;;;;;;16.54;66.72;101040.75;4848756;28;97421;-52
2022/09/25 08:59:41;;;;;;;9.53;2.80;;;;;;;16.56;66.83;101043.00;4872595;28;98282;-52
2022/09/25 09:02:15;;;;;;;4.40;2.50;;;;;;;16.58;66.75;101035.66;4861667;28;101418;-52
2022/09/25 09:04:43;;;;;;;5.90;2.43;;;;;;;16.60;66.77;101040.69;4877520;28;101821;-52
2022/09/25 09:07:37;;;;;;;2.53;2.33;;;;;;;16.64;66.83;101041.91;4863896;28;96814;-52
2022/09/25 09:10:26;;;;;;;5.37;2.73;;;;;;;16.70;66.80;101042.56;4864020;28;97010;-53
2022/09/25 09:12:59;;;;;;;7.07;2.43;;;;;;;16.77;66.45;101044.00;4875725;28;101879;-52
2022/09/25 09:15:34;;;;;;;3.83;2.40;;;;;;;16.80;66.70;101038.13;4859269;28;96940;-52
2022/09/25 09:18:08;;;;;;;3.50;2.43;;;;;;;16.83;66.66;101037.09;4873067;28;97296;-53
2022/09/25 09:20:44;;;;;;;3.10;2.77;;;;;;;16.89;66.65;101039.78;4858126;28;97119;-52
2022/09/25 09:23:17;;;;;;;3.10;2.43;;;;;;;16.93;66.68;101043.00;4871691;28;101967;-52
2022/09/25 09:25:55;;;;;;;3.00;2.17;;;;;;;16.95;66.66;101046.03;4860239;28;97695;-52
2022/09/25 09:28:26;;;;;;;2.30;2.10;;;;;;;16.96;66.60;101050.28;4873543;28;97311;-53
2022/09/25 09:31:08;;;;;;;7.40;2.40;;;;;;;16.96;66.62;101051.06;4855274;28;99116;-53
2022/09/25 09:33:51;;;;;;;4.50;2.47;;;;;;;16.95;66.65;101043.97;4873420;28;102182;-53
2022/09/25 09:36:43;;;;;;;2.53;2.33;;;;;;;16.93;66.66;101046.53;4864765;28;102402;-52
2022/09/25 09:39:27;;;;;;;7.93;3.10;;;;;;;16.92;66.72;101052.63;4867002;28;97367;-53
2022/09/25 09:41:55;;;;;;;2.37;2.17;;;;;;;16.92;66.64;101056.16;4862191;28;97414;-53
2022/09/25 09:44:36;;;;;;;2.53;2.33;;;;;;;16.94;66.65;101050.06;4870280;28;97304;-52
2022/09/25 09:47:38;;;;;;;2.83;2.50;;;;;;;16.93;66.79;101051.34;4866463;28;100087;-53
2022/09/25 09:50:20;;;;;;;2.93;2.53;;;;;;;16.94;66.69;101052.84;4858443;28;98284;-53
2022/09/25 09:52:51;;;;;;;3.23;2.93;;;;;;;16.95;66.57;101048.81;4858466;28;97410;-51
2022/09/25 09:55:41;;;;;;;5.10;3.00;;;;;;;16.93;66.98;101048.56;4847983;28;99933;-53
2022/09/25 09:58:34;;;;;;;3.80;3.37;;;;;;;16.98;66.75;101044.97;4858057;28;102842;-52
2022/09/25 10:01:00;;;;;;;3.00;2.80;;;;;;;17.01;66.60;101046.69;4875059;28;97294;-51
2022/09/25 10:03:36;;;;;;;7.53;3.63;;;;;;;17.01;66.54;101044.69;4864540;28;97134;-53
2022/09/25 10:06:07;;;;;;;4.33;3.10;;;;;;;17.00;66.67;101048.72;4878509;28;100525;-53
2022/09/25 10:08:34;;;;;;;3.03;2.70;;;;;;;17.06;66.80;101048.63;4882959;28;97517;-53
2022/09/25 10:11:12;;;;;;;3.70;2.90;;;;;;;17.10;66.78;101047.03;4867450;28;96915;-52
2022/09/25 10:13:39;;;;;;;7.37;3.73;;;;;;;17.13;66.59;101048.03;4874885;28;97372;-53
2022/09/25 10:16:26;;;;;;;4.97;3.27;;;;;;;17.14;66.49;101046.75;4853976;28;97648;-53
2022/09/25 10:19:09;;;;;;;3.10;2.90;;;;;;;17.14;66.49;101041.19;4865239;28;101446;-58
2022/09/25 10:21:51;;;;;;;4.40;3.17;;;;;;;17.16;66.70;101042.16;4869117;28;96837;-53
2022/09/25 10:24:50;;;;;;;6.00;2.87;;;;;;;17.20;66.94;101036.28;4855898;28;98268;-52
2022/09/25 10:27:35;;;;;;;3.13;2.83;;;;;;;17.26;66.85;101039.72;4853837;28;100514;-53
2022/09/25 10:30:09;;;;;;;4.20;2.97;;;;;;;17.31;66.71;101041.69;4873713;28;101741;-52
2022/09/25 10:32:42;;;;;;;3.83;3.20;;;;;;;17.34;66.61;101043.41;4861356;28;97571;-53
2022/09/25 10:35:20;;;;;;;3.03;2.73;;;;;;;17.36;66.54;101043.63;4868021;28;97063;-53
2022/09/25 10:37:52;;;;;;;6.47;2.97;;;;;;;17.40;66.52;101044.06;4863717;28;103320;-53
2022/09/25 10:40:37;;;;;;;9.30;2.90;;;;;;;17.41;66.62;101044.81;4869226;28;101665;-52
2022/09/25 10:43:15;;;;;;;4.40;2.77;;;;;;;17.45;66.71;101042.47;4881664;28;97147;-53
2022/09/25 10:45:41;;;;;;;5.37;2.77;;;;;;;17.48;66.35;101042.16;4855321;28;97124;-52
2022/09/25 10:51:16;;;;;;;5.57;2.27;;;;;;;17.46;66.42;101043.97;4872656;28;101441;-51
2022/09/25 10:53:41;;;;;;;3.03;2.40;;;;;;;17.47;66.40;101040.69;4869005;28;97224;-53
2022/09/25 10:56:11;;;;;;;3.30;2.10;;;;;;;17.45;66.54;101042.47;4862387;28;97784;-53
2022/09/25 10:58:47;;;;;;;1.63;1.53;;;;;;;17.46;66.69;101041.19;4866069;28;97578;-53
2022/09/25 11:01:15;;;;;;;9.90;2.10;;;;;;;17.50;66.58;101039.63;4855826;28;97481;-53
2022/09/25 11:03:56;;;;;;;4.20;1.67;;;;;;;17.52;66.42;101033.53;4868402;28;97032;-53
2022/09/25 11:06:25;;;;;;;3.13;1.87;;;;;;;17.53;66.46;101038.56;4858071;28;97050;-53
2022/09/25 11:09:10;;;;;;;1.93;1.73;;;;;;;17.56;66.43;101042.31;4873362;28;97008;-53
2022/09/25 11:11:37;;;;;;;6.57;1.87;;;;;;;17.60;66.43;101035.16;4854951;28;97141;-53
2022/09/25 11:14:04;;;;;;;1.80;1.70;;;;;;;17.68;66.31;101035.28;4871100;28;97799;-52
2022/09/25 11:16:47;;;;;;;7.03;1.70;;;;;;;17.75;66.33;101038.19;4860102;28;96832;-53
2022/09/25 11:19:21;;;;;;;1.77;1.67;;;;;;;17.81;66.27;101041.63;4877615;28;97086;-53
2022/09/25 11:22:03;;;;;;;4.33;2.00;;;;;;;17.86;66.32;101046.34;4869779;28;98313;-53
2022/09/25 11:24:36;;;;;;;3.10;1.63;;;;;;;17.87;65.95;101042.28;4872758;28;97177;-53
2022/09/25 11:27:20;;;;;;;10.60;2.20;;;;;;;17.91;66.46;101041.94;4853274;28;96912;-53
2022/09/25 11:30:15;;;;;;;3.50;1.67;;;;;;;17.95;65.90;101040.34;4866058;28;100707;-53
2022/09/25 11:33:05;;;;;;;5.53;1.67;;;;;;;17.97;66.07;101026.63;4870790;28;101628;-53
2022/09/25 11:36:02;;;;;;;2.13;1.53;;;;;;;17.97;65.88;101034.97;4872620;28;100954;-52
2022/09/25 11:42:04;;;;;;;5.03;1.33;;;;;;;17.96;64.79;101025.16;4864992;28;100563;-53
2022/09/25 11:44:39;;;;;;;2.37;1.23;;;;;;;17.96;65.20;101035.53;4892823;28;100963;-53
2022/09/25 11:47:19;;;;;;;1.80;1.37;;;;;;;17.91;65.08;101031.56;4872964;28;98479;-55
2022/09/25 11:49:52;;;;;;;1.67;1.03;;;;;;;17.96;65.38;101027.94;4874033;28;98370;-52
2022/09/25 11:52:41;;;;;;;1.03;0.90;;;;;;;18.15;65.19;101027.81;4874704;28;100825;-52
2022/09/25 11:55:13;;;;;;;2.93;1.13;;;;;;;18.47;65.11;101022.16;4864966;28;101637;-52
2022/09/25 11:58:06;;;;;;;1.53;1.20;;;;;;;18.59;63.88;101020.63;4860041;28;97065;-52
2022/09/25 12:00:43;;;;;;;3.33;1.17;;;;;;;18.58;64.07;101024.72;4867063;28;97660;-52